Time;durP1;ratioP1;P1;durP2;ratioP2;P2;SDS_P1;SDS_P2;PMS_P1;PMS_P2;Temp;Humidity;BMP_temperature;BMP_pressure;BME280_temperature;BME280_humidity;BME280_pressure;Samples;Min_cycle;Max_cycle;Signal;HPM_P1;HPM_P2
2022/11/27 00:00:22;;;;;;;18.70;7.72;;;;;;;;;;6225063;22;20093;-87
2022/11/27 00:02:48;;;;;;;23.58;6.45;;;;;;;;;;6226208;22;20341;-91
2022/11/27 00:05:14;;;;;;;19.65;6.35;;;;;;;;;;6225610;22;20015;-88
2022/11/27 00:07:40;;;;;;;18.00;5.57;;;;;;;;;;6226383;22;20098;-90
2022/11/27 00:10:06;;;;;;;22.60;6.82;;;;;;;;;;6277314;22;20039;-87
2022/11/27 00:12:33;;;;;;;24.85;7.47;;;;;;;;;;6250296;22;20049;-87
2022/11/27 00:14:59;;;;;;;25.05;6.53;;;;;;;;;;6224441;22;20012;-90
2022/11/27 00:17:25;;;;;;;13.35;5.90;;;;;;;;;;6225136;22;20451;-89
2022/11/27 00:19:51;;;;;;;15.60;6.22;;;;;;;;;;6224902;22;20019;-92
2022/11/27 00:22:17;;;;;;;15.38;6.10;;;;;;;;;;6250025;22;20352;-87
2022/11/27 00:24:43;;;;;;;23.35;6.97;;;;;;;;;;6250836;22;20034;-87
2022/11/27 00:27:10;;;;;;;17.30;6.28;;;;;;;;;;6250366;22;20019;-87
2022/11/27 00:29:36;;;;;;;18.48;5.85;;;;;;;;;;6249762;22;20357;-87
2022/11/27 00:32:05;;;;;;;15.60;6.55;;;;;;;;;;6249877;22;20023;-87
2022/11/27 00:34:31;;;;;;;17.35;5.35;;;;;;;;;;6250294;22;20073;-87
2022/11/27 00:36:57;;;;;;;15.77;6.07;;;;;;;;;;6249897;22;20492;-86
2022/11/27 00:39:23;;;;;;;15.30;5.95;;;;;;;;;;6252267;22;20016;-87
2022/11/27 00:41:49;;;;;;;21.73;6.13;;;;;;;;;;6279002;22;20020;-87
2022/11/27 00:44:15;;;;;;;15.20;6.05;;;;;;;;;;6279624;22;20042;-87
2022/11/27 00:46:41;;;;;;;25.98;6.03;;;;;;;;;;6252694;22;20020;-87
2022/11/27 00:49:08;;;;;;;17.25;6.28;;;;;;;;;;6226238;22;20472;-87
2022/11/27 00:51:35;;;;;;;15.55;6.90;;;;;;;;;;6226063;22;20099;-87
2022/11/27 00:54:01;;;;;;;15.88;5.75;;;;;;;;;;6224460;22;20078;-88
2022/11/27 00:56:31;;;;;;;16.67;6.15;;;;;;;;;;6225979;22;20026;-87
2022/11/27 00:58:57;;;;;;;16.40;6.20;;;;;;;;;;6224181;22;20035;-87
2022/11/27 01:01:26;;;;;;;14.82;5.68;;;;;;;;;;6224449;22;20022;-88
2022/11/27 01:03:52;;;;;;;20.13;7.47;;;;;;;;;;6225446;22;20012;-93
2022/11/27 01:06:19;;;;;;;21.95;6.68;;;;;;;;;;6226284;22;20018;-90
2022/11/27 01:08:45;;;;;;;19.42;6.50;;;;;;;;;;6224543;22;20400;-93
2022/11/27 01:11:16;;;;;;;17.30;7.30;;;;;;;;;;6224663;22;20016;-94
2022/11/27 01:13:42;;;;;;;17.13;6.72;;;;;;;;;;6225985;22;20015;-95
2022/11/27 01:16:10;;;;;;;14.85;6.78;;;;;;;;;;6225531;22;20012;-92
2022/11/27 01:18:37;;;;;;;20.67;6.47;;;;;;;;;;6250481;22;20082;-89
2022/11/27 01:21:03;;;;;;;15.57;6.45;;;;;;;;;;6225888;22;20381;-93
2022/11/27 01:23:29;;;;;;;20.20;7.05;;;;;;;;;;6227435;22;20065;-90
2022/11/27 01:25:55;;;;;;;22.58;8.15;;;;;;;;;;6227958;22;20069;-89
2022/11/27 01:28:22;;;;;;;16.17;6.07;;;;;;;;;;6229670;22;20016;-92
2022/11/27 01:30:48;;;;;;;17.55;7.57;;;;;;;;;;6230275;22;20016;-91
2022/11/27 01:33:15;;;;;;;17.77;6.50;;;;;;;;;;6229651;22;20012;-90
2022/11/27 01:35:41;;;;;;;14.77;6.50;;;;;;;;;;6253518;22;20016;-93
2022/11/27 01:38:07;;;;;;;23.48;6.28;;;;;;;;;;6257417;22;20019;-87
2022/11/27 01:40:33;;;;;;;19.95;6.82;;;;;;;;;;6256578;22;20015;-91
2022/11/27 01:42:59;;;;;;;12.65;6.15;;;;;;;;;;6230584;22;20039;-88
2022/11/27 01:45:25;;;;;;;12.85;6.57;;;;;;;;;;6255440;22;20012;-92
2022/11/27 01:47:55;;;;;;;11.02;5.95;;;;;;;;;;6232058;22;20539;-93
2022/11/27 01:50:23;;;;;;;10.45;6.35;;;;;;;;;;6230996;22;20022;-92
2022/11/27 01:52:51;;;;;;;15.23;5.88;;;;;;;;;;6227905;22;20152;-93
2022/11/27 01:55:20;;;;;;;17.35;5.80;;;;;;;;;;6230962;22;20085;-91
2022/11/27 01:57:50;;;;;;;9.07;5.60;;;;;;;;;;6229763;22;20023;-96
2022/11/27 02:00:17;;;;;;;20.45;7.15;;;;;;;;;;6253894;22;20023;-95
2022/11/27 02:02:44;;;;;;;13.60;5.95;;;;;;;;;;6251418;22;20019;-91
2022/11/27 02:05:11;;;;;;;24.33;6.32;;;;;;;;;;6226472;22;20012;-88
2022/11/27 02:07:37;;;;;;;15.98;6.63;;;;;;;;;;6224827;22;20020;-87
2022/11/27 02:10:04;;;;;;;14.48;6.15;;;;;;;;;;6250634;22;20456;-93
2022/11/27 02:12:39;;;;;;;14.65;5.95;;;;;;;;;;6226414;22;20027;-90
2022/11/27 02:15:05;;;;;;;14.73;6.22;;;;;;;;;;6227676;22;20016;-95
2022/11/27 02:18:10;;;;;;;11.82;5.88;;;5.90;99.90;;;;;;6251107;22;20019;-88
2022/11/27 02:20:52;;;;;;;11.65;6.10;;;;;;;;;;6101066;23;20028;-88
2022/11/27 02:23:55;;;;;;;16.65;5.68;;;5.90;99.90;;;;;;6077144;23;20018;-88
2022/11/27 02:26:36;;;;;;;18.17;6.43;;;;;;;;;;6076986;23;20053;-87
2022/11/27 02:29:03;;;;;;;18.55;6.43;;;;;;;;;;6076948;23;20050;-88
2022/11/27 02:31:29;;;;;;;14.07;5.63;;;;;;;;;;6077689;23;20439;-87
2022/11/27 02:33:56;;;;;;;14.20;5.20;;;;;;;;;;6100924;23;20060;-87
2022/11/27 02:36:26;;;;;;;8.90;4.93;;;;;;;;;;6076839;23;20127;-87
2022/11/27 02:39:13;;;;;;;11.02;6.03;;;;;;;;;;6076849;23;20018;-88
2022/11/27 02:41:43;;;;;;;11.63;5.13;;;;;;;;;;6076763;23;20480;-87
2022/11/27 02:44:10;;;;;;;13.65;5.57;;;;;;;;;;6077316;23;20041;-87
2022/11/27 02:46:37;;;;;;;13.10;5.70;;;;;;;;;;6100613;23;20021;-87
2022/11/27 02:49:06;;;;;;;15.77;5.93;;;;;;;;;;6076610;23;20025;-87
2022/11/27 02:51:37;;;;;;;9.52;5.80;;;;;;;;;;6076599;23;20070;-87
2022/11/27 02:54:05;;;;;;;9.57;5.57;;;;;;;;;;6100548;23;20020;-87
2022/11/27 02:56:32;;;;;;;15.57;6.20;;;;;;;;;;6079000;22;20014;-87
2022/11/27 02:59:03;;;;;;;12.65;6.05;;;;;;;;;;6250647;22;20027;-87
2022/11/27 03:01:31;;;;;;;9.25;5.50;;;;;;;;;;6225424;22;20054;-88
2022/11/27 03:03:58;;;;;;;14.30;6.28;;;;;;;;;;6226965;22;20375;-87
2022/11/27 03:06:33;;;;;;;19.92;5.78;;;;;;;;;;6225328;22;20326;-87
2022/11/27 03:09:04;;;;;;;10.90;5.95;;;;;;;;;;6225854;22;20073;-87
2022/11/27 03:11:30;;;;;;;14.63;6.28;;;;;;;;;;6225026;22;20047;-87
2022/11/27 03:14:04;;;;;;;15.95;6.85;;;;;;;;;;6225811;22;20042;-87
2022/11/27 03:16:38;;;;;;;12.70;5.95;;;;;;;;;;6226042;22;20012;-87
2022/11/27 03:19:19;;;;;;;12.82;7.40;;;;;;;;;;6225160;22;20023;-87
2022/11/27 03:21:48;;;;;;;14.13;5.53;;;;;;;;;;6224941;22;20094;-87
2022/11/27 03:24:14;;;;;;;11.18;7.15;;;;;;;;;;6225054;22;20011;-87
2022/11/27 03:26:40;;;;;;;19.30;5.95;;;;;;;;;;6250197;22;20456;-87
2022/11/27 03:29:09;;;;;;;24.65;5.72;;;;;;;;;;6250318;22;20057;-87
2022/11/27 03:31:35;;;;;;;18.83;7.00;;;;;;;;;;6250571;22;20015;-87
2022/11/27 03:34:02;;;;;;;18.77;6.50;;;;;;;;;;6250029;22;20020;-87
2022/11/27 03:36:28;;;;;;;11.13;6.30;;;;;;;;;;6250247;22;20102;-87
2022/11/27 03:38:54;;;;;;;16.77;6.85;;;;;;;;;;6224964;22;20051;-87
2022/11/27 03:41:29;;;;;;;18.65;6.82;;;;;;;;;;6226225;22;20020;-86
2022/11/27 03:44:11;;;;;;;10.23;6.10;;;;;;;;;;6277806;22;20337;-86
2022/11/27 03:46:37;;;;;;;11.60;6.63;;;;;;;;;;6277670;22;20016;-86
2022/11/27 03:49:08;;;;;;;12.43;6.30;;;;;;;;;;6250908;22;20019;-87
2022/11/27 03:51:37;;;;;;;15.15;6.70;;;;;;;;;;6250333;22;20019;-87
2022/11/27 03:54:08;;;;;;;12.98;5.82;;;;;;;;;;6250168;22;20016;-88
2022/11/27 03:56:57;;;;;;;15.85;5.95;;;;;;;;;;6263525;22;20027;-87
2022/11/27 03:59:25;;;;;;;11.82;7.00;;;;;;;;;;6261296;22;20095;-89
2022/11/27 04:01:51;;;;;;;15.75;6.15;;;;;;;;;;6261193;22;20027;-92
2022/11/27 04:04:18;;;;;;;10.40;5.93;;;;;;;;;;6256837;22;20023;-92
2022/11/27 04:06:44;;;;;;;19.42;6.68;;;;;;;;;;6251269;22;20058;-88
2022/11/27 04:09:10;;;;;;;9.00;5.47;;;;;;;;;;6225254;22;20016;-90
2022/11/27 04:11:36;;;;;;;9.38;5.43;;;;;;;;;;6250813;22;20023;-88
2022/11/27 04:14:02;;;;;;;13.93;5.72;;;;;;;;;;6225235;22;20068;-93
2022/11/27 04:16:28;;;;;;;17.92;5.47;;;;;;;;;;6225500;22;20015;-89
2022/11/27 04:18:54;;;;;;;10.52;4.63;;;;;;;;;;6225534;22;20011;-88
2022/11/27 04:21:20;;;;;;;14.20;5.88;;;;;;;;;;6225400;22;20052;-88
2022/11/27 04:23:46;;;;;;;13.80;6.00;;;;;;;;;;6250435;22;20047;-89
2022/11/27 04:26:12;;;;;;;14.65;5.75;;;;;;;;;;6225341;22;20023;-90
2022/11/27 04:28:38;;;;;;;14.05;5.88;;;;;;;;;;6225547;22;20020;-88
2022/11/27 04:31:04;;;;;;;11.70;5.15;;;;;;;;;;6225459;22;20016;-91
2022/11/27 04:33:30;;;;;;;11.10;5.93;;;;;;;;;;6226665;22;20022;-88
2022/11/27 04:35:56;;;;;;;17.33;6.43;;;;;;;;;;6224525;22;20022;-87
2022/11/27 04:38:22;;;;;;;11.43;5.50;;;;;;;;;;6249751;22;20058;-86
2022/11/27 04:40:48;;;;;;;18.45;6.53;;;;;;;;;;6225158;22;20020;-87
2022/11/27 04:43:14;;;;;;;12.43;5.72;;;;;;;;;;6225083;22;20019;-87
2022/11/27 04:45:40;;;;;;;11.45;5.63;;;;;;;;;;6224284;22;20460;-87
2022/11/27 04:48:06;;;;;;;13.60;5.95;;;;;;;;;;6224206;22;20453;-89
2022/11/27 04:50:32;;;;;;;12.52;5.60;;;;;;;;;;6224465;22;20054;-87
2022/11/27 04:52:58;;;;;;;9.82;4.95;;;;;;;;;;6224247;22;20062;-86
2022/11/27 04:55:24;;;;;;;11.82;5.05;;;;;;;;;;6249718;22;20022;-87
2022/11/27 04:57:50;;;;;;;11.02;5.30;;;;;;;;;;6224356;22;20015;-87
2022/11/27 05:00:17;;;;;;;8.90;4.45;;;;;;;;;;6249656;22;20028;-87
2022/11/27 05:02:43;;;;;;;11.45;4.97;;;;;;;;;;6249845;22;20345;-87
2022/11/27 05:05:09;;;;;;;10.35;5.55;;;;;;;;;;6249630;22;20357;-87
2022/11/27 05:07:35;;;;;;;9.20;4.40;;;;;;;;;;6249509;22;20015;-87
2022/11/27 05:10:01;;;;;;;12.35;4.40;;;;;;;;;;6249466;22;20024;-87
2022/11/27 05:12:27;;;;;;;13.23;5.05;;;;;;;;;;6224370;22;20098;-87
2022/11/27 05:14:53;;;;;;;10.30;4.50;;;;;;;;;;6224283;22;20012;-87
2022/11/27 05:17:19;;;;;;;14.98;5.15;;;;;;;;;;6224412;22;20345;-87
2022/11/27 05:19:45;;;;;;;11.60;5.10;;;;;;;;;;6224240;22;20087;-87
2022/11/27 05:22:11;;;;;;;9.15;4.53;;;;;;;;;;6224434;22;20065;-87
2022/11/27 05:24:37;;;;;;;10.10;4.40;;;;;;;;;;6249417;22;20024;-87
2022/11/27 05:27:03;;;;;;;9.57;4.18;;;;;;;;;;6224436;22;20026;-87
2022/11/27 05:29:29;;;;;;;9.13;4.72;;;;;;;;;;6249499;22;20095;-87
2022/11/27 05:31:55;;;;;;;10.05;4.68;;;;;;;;;;6249473;22;20016;-87
2022/11/27 05:34:21;;;;;;;13.85;5.20;;;;;;;;;;6249544;22;20016;-87
2022/11/27 05:36:47;;;;;;;18.17;4.78;;;;;;;;;;6224146;22;20026;-86
2022/11/27 05:39:14;;;;;;;9.32;5.28;;;;;;;;;;6224240;22;20023;-87
2022/11/27 05:41:41;;;;;;;9.18;4.38;;;;;;;;;;6223926;22;20396;-87
2022/11/27 05:44:09;;;;;;;21.25;5.55;;;;;;;;;;6224225;22;20086;-87
2022/11/27 05:46:35;;;;;;;15.77;4.35;;;;;;;;;;6225541;22;20023;-87
2022/11/27 05:49:01;;;;;;;14.70;4.70;;;;;;;;;;6226046;22;20019;-87
2022/11/27 05:51:27;;;;;;;16.92;4.72;;;;;;;;;;6225955;22;20023;-87
2022/11/27 05:53:53;;;;;;;7.75;3.97;;;;;;;;;;6226040;22;20023;-87
2022/11/27 05:56:19;;;;;;;5.45;3.25;;;;;;;;;;6226513;22;20119;-91
2022/11/27 05:58:46;;;;;;;13.88;5.05;;;;;;;;;;6226115;22;20015;-90
2022/11/27 06:01:13;;;;;;;10.55;4.60;;;;;;;;;;6225977;22;20016;-89
2022/11/27 06:03:39;;;;;;;10.05;4.57;;;;;;;;;;6225988;22;20019;-87
2022/11/27 06:06:10;;;;;;;9.48;4.40;;;;;;;;;;6225845;22;20020;-87
2022/11/27 06:08:36;;;;;;;15.00;4.22;;;;;;;;;;6228247;22;20019;-88
2022/11/27 06:11:14;;;;;;;12.00;4.20;;;;;;;;;;6231725;22;20059;-90
2022/11/27 06:13:40;;;;;;;12.18;4.32;;;;;;;;;;6236143;22;20047;-90
2022/11/27 06:16:13;;;;;;;8.32;4.40;;;;;;;;;;6238534;22;20067;-93
2022/11/27 06:18:40;;;;;;;7.53;4.18;;;;;;;;;;6256252;22;20054;-94
2022/11/27 06:21:10;;;;;;;14.32;4.10;;;;;;;;;;6228136;22;20015;-94
2022/11/27 06:23:36;;;;;;;9.35;3.97;;;;;;;;;;6227387;22;20073;-93
2022/11/27 06:26:13;;;;;;;7.88;3.70;;;;;;;;;;6253229;22;20099;-93
2022/11/27 06:28:39;;;;;;;12.77;4.40;;;;;;;;;;6226682;22;20020;-92
2022/11/27 06:31:13;;;;;;;15.52;5.00;;;;;;;;;;6226644;22;20054;-93
2022/11/27 06:33:39;;;;;;;9.02;4.35;;;;;;;;;;6225928;22;20038;-87
2022/11/27 06:36:05;;;;;;;10.07;3.88;;;;;;;;;;6225564;22;20469;-87
2022/11/27 06:38:35;;;;;;;13.35;5.95;;;;;;;;;;6251034;22;20357;-87
2022/11/27 06:41:09;;;;;;;15.02;5.00;;;;;;;;;;6252315;22;20016;-87
2022/11/27 06:43:35;;;;;;;6.93;3.40;;;;;;;;;;6225749;22;20456;-87
2022/11/27 06:46:02;;;;;;;10.60;3.88;;;;;;;;;;6225356;22;20012;-87
2022/11/27 06:48:29;;;;;;;10.88;3.85;;;;;;;;;;6250896;22;20026;-86
2022/11/27 06:50:58;;;;;;;6.45;3.28;;;;;;;;;;6225634;22;20388;-87
2022/11/27 06:53:24;;;;;;;7.22;3.47;;;;;;;;;;6225469;22;20026;-87
2022/11/27 06:55:50;;;;;;;17.63;4.50;;;;;;;;;;6250508;22;20011;-88
2022/11/27 06:58:16;;;;;;;10.30;4.45;;;;;;;;;;6225438;22;20023;-88
2022/11/27 07:00:42;;;;;;;11.13;4.07;;;;;;;;;;6250770;22;20020;-87
2022/11/27 07:03:08;;;;;;;10.23;4.10;;;;;;;;;;6250688;22;20098;-87
2022/11/27 07:05:35;;;;;;;8.90;4.35;;;;;;;;;;6250756;22;20384;-87
2022/11/27 07:08:01;;;;;;;9.60;3.78;;;;;;;;;;6250498;22;20023;-87
2022/11/27 07:10:27;;;;;;;5.70;3.97;;;;;;;;;;6225166;22;20122;-87
2022/11/27 07:12:53;;;;;;;10.25;3.78;;;;;;;;;;6225318;22;20016;-87
2022/11/27 07:15:19;;;;;;;9.90;4.57;;;;;;;;;;6225025;22;20090;-87
2022/11/27 07:17:45;;;;;;;10.60;3.88;;;;;;;;;;6250331;22;20112;-87
2022/11/27 07:20:11;;;;;;;11.82;3.83;;;;;;;;;;6224930;22;20015;-87
2022/11/27 07:22:37;;;;;;;20.63;4.38;;;;;;;;;;6224898;22;20495;-87
2022/11/27 07:25:04;;;;;;;6.55;3.97;;;;;;;;;;6250637;22;20034;-87
2022/11/27 07:27:30;;;;;;;6.32;3.70;;;;;;;;;;6224822;22;20491;-87
2022/11/27 07:29:56;;;;;;;11.25;3.70;;;;;;;;;;6225249;22;20460;-87
2022/11/27 07:32:22;;;;;;;8.77;4.20;;;;;;;;;;6225010;22;20026;-87
2022/11/27 07:34:48;;;;;;;5.68;4.10;;;;;;;;;;6224982;22;20019;-87
2022/11/27 07:37:14;;;;;;;10.02;3.90;;;;;;;;;;6250333;22;20020;-87
2022/11/27 07:39:40;;;;;;;9.43;4.55;;;;;;;;;;6225351;22;20012;-87
2022/11/27 07:42:06;;;;;;;8.30;4.35;;;;;;;;;;6250866;22;20023;-87
2022/11/27 07:44:32;;;;;;;8.02;3.80;;;;;;;;;;6225522;22;20023;-87
2022/11/27 07:46:58;;;;;;;7.35;4.22;;;;;;;;;;6250487;22;20054;-87
2022/11/27 07:49:24;;;;;;;16.60;4.45;;;;;;;;;;6224935;22;20019;-87
2022/11/27 07:51:50;;;;;;;10.73;5.57;;;;;;;;;;6225511;22;20026;-94
2022/11/27 07:54:16;;;;;;;11.18;4.65;;;;;;;;;;6250713;22;20094;-88
2022/11/27 07:56:42;;;;;;;17.20;4.47;;;;;;;;;;6250845;22;20018;-87
2022/11/27 07:59:08;;;;;;;11.57;4.25;;;;;;;;;;6250746;22;20386;-87
2022/11/27 08:01:34;;;;;;;7.20;3.90;;;;;;;;;;6225348;22;20019;-87
2022/11/27 08:04:00;;;;;;;7.35;4.10;;;;;;;;;;6225266;22;20019;-89
2022/11/27 08:06:26;;;;;;;13.48;4.60;;;;;;;;;;6225159;22;20093;-91
2022/11/27 08:08:54;;;;;;;12.52;5.20;;;;;;;;;;6224815;22;20069;-90
2022/11/27 08:11:29;;;;;;;10.20;4.57;;;6.40;99.90;;;;;;6249939;22;20055;-92
2022/11/27 08:13:56;;;;;;;9.73;4.40;;;;;;;;;;6250189;22;20019;-94
2022/11/27 08:16:22;;;;;;;10.68;4.28;;;;;;;;;;6224564;22;20012;-89
2022/11/27 08:18:48;;;;;;;10.57;4.97;;;;;;;;;;6224962;22;20020;-88
2022/11/27 08:21:14;;;;;;;8.70;4.60;;;;;;;;;;6224679;22;20019;-88
2022/11/27 08:23:40;;;;;;;9.80;5.35;;;;;;;;;;6225019;22;20015;-88
2022/11/27 08:26:08;;;;;;;6.93;4.50;;;;;;;;;;6250638;22;20020;-89
2022/11/27 08:28:34;;;;;;;9.60;4.75;;;;;;;;;;6251407;22;20026;-87
2022/11/27 08:31:01;;;;;;;8.00;4.72;;;;;;;;;;6224926;22;20015;-87
2022/11/27 08:33:27;;;;;;;12.38;4.65;;;;;;;;;;6251188;22;20027;-88
2022/11/27 08:35:53;;;;;;;7.38;3.80;;;;;;;;;;6224596;22;20012;-87
2022/11/27 08:38:19;;;;;;;7.82;4.65;;;;;;;;;;6224695;22;20016;-88
2022/11/27 08:40:45;;;;;;;8.40;4.82;;;;;;;;;;6251152;22;20089;-87
2022/11/27 08:43:11;;;;;;;12.13;4.43;;;;;;;;;;6224491;22;20015;-87
2022/11/27 08:45:38;;;;;;;8.32;5.10;;;;;;;;;;6249560;22;20023;-87
2022/11/27 08:48:05;;;;;;;10.82;4.78;;;;;;;;;;6249565;22;20020;-87
2022/11/27 08:50:31;;;;;;;10.13;4.60;;;;;;;;;;6249741;22;20023;-87
2022/11/27 08:52:57;;;;;;;11.95;4.55;;;;;;;;;;6249703;22;20019;-87
2022/11/27 08:55:23;;;;;;;13.90;6.38;;;;;;;;;;6224391;22;20016;-87
2022/11/27 08:57:49;;;;;;;7.82;4.70;;;;;;;;;;6224293;22;20085;-87
2022/11/27 09:00:15;;;;;;;14.15;5.25;;;;;;;;;;6224456;22;20018;-87
2022/11/27 09:02:41;;;;;;;8.57;4.65;;;;;;;;;;6224172;22;20067;-87
2022/11/27 09:05:07;;;;;;;10.60;5.10;;;;;;;;;;6224494;22;20020;-87
2022/11/27 09:07:33;;;;;;;10.57;5.40;;;;;;;;;;6224225;22;20022;-87
2022/11/27 09:09:59;;;;;;;13.35;5.45;;;;;;;;;;6249399;22;20015;-87
2022/11/27 09:12:26;;;;;;;13.30;6.13;;;;;;;;;;6224671;22;20020;-87
2022/11/27 09:14:52;;;;;;;12.57;5.20;;;;;;;;;;6224223;22;20066;-87
2022/11/27 09:17:18;;;;;;;9.70;5.13;;;;;;;;;;6224622;22;20019;-87
2022/11/27 09:19:44;;;;;;;12.63;5.88;;;;;;;;;;6225307;22;20050;-87
2022/11/27 09:22:10;;;;;;;8.63;5.00;;;;;;;;;;6226597;22;20075;-87
2022/11/27 09:24:36;;;;;;;9.02;5.38;;;;;;;;;;6226448;22;20034;-87
2022/11/27 09:27:02;;;;;;;11.63;5.82;;;;;;;;;;6226996;22;20019;-87
2022/11/27 09:29:28;;;;;;;11.27;5.50;;;;;;;;;;6226661;22;20419;-92
2022/11/27 09:31:54;;;;;;;8.98;5.20;;;;;;;;;;6251844;22;20055;-93
2022/11/27 09:34:20;;;;;;;9.10;5.10;;;;;;;;;;6226786;22;20011;-94
2022/11/27 09:36:47;;;;;;;8.82;5.53;;;;;;;;;;6251781;22;20020;-87
2022/11/27 09:39:14;;;;;;;9.93;5.97;;;;;;;;;;6226796;22;20016;-88
2022/11/27 09:41:50;;;;;;;12.50;6.05;;;;;;;;;;6251996;22;20043;-88
2022/11/27 09:44:22;;;;;;;14.68;5.82;;;;;;;;;;6226928;22;20453;-88
2022/11/27 09:46:49;;;;;;;12.00;5.82;;;;;;;;;;6226082;22;20023;-89
2022/11/27 09:49:45;;;;;;;12.65;5.55;;;;;;;;;;6226325;22;20011;-89
2022/11/27 09:52:17;;;;;;;12.77;5.50;;;;;;;;;;6077201;23;20472;-88
2022/11/27 09:54:48;;;;;;;9.45;5.53;;;;;;;;;;6077194;23;20060;-89
2022/11/27 09:57:16;;;;;;;15.07;5.45;;;;;;;;;;6101675;23;20057;-91
2022/11/27 09:59:44;;;;;;;11.02;5.43;;;;;;;;;;6077768;23;20028;-90
2022/11/27 10:02:17;;;;;;;11.02;6.28;;;;;;;;;;6077433;23;20352;-90
2022/11/27 10:04:43;;;;;;;10.02;5.95;;;;;;;;;;6101155;23;20018;-89
2022/11/27 10:07:24;;;;;;;12.95;6.40;;;;;;;;;;6077346;23;20097;-89
2022/11/27 10:10:13;;;;;;;16.08;6.45;;;;;;;;;;6102253;23;20021;-90
2022/11/27 10:12:58;;;;;;;14.77;6.00;;;;;;;;;;5955845;24;20020;-90
2022/11/27 10:15:48;;;;;;;14.23;5.93;;;;;;;;;;5932190;24;20032;-90
2022/11/27 10:18:35;;;;;;;10.65;6.90;;;6.30;99.90;;;;;;5955001;24;20065;-90
2022/11/27 10:21:09;;;;;;;11.25;6.18;;;;;;;;;;5931136;23;20104;-88
2022/11/27 10:23:35;;;;;;;17.75;6.55;;;;;;;;;;5931362;24;20432;-88
2022/11/27 10:26:05;;;;;;;10.52;6.88;;;;;;;;;;5954254;24;20100;-89
2022/11/27 10:28:43;;;;;;;18.08;6.18;;;;;;;;;;6022763;23;20116;-88
2022/11/27 10:31:11;;;;;;;15.15;6.40;;;;;;;;;;6071881;23;20348;-89
2022/11/27 10:33:46;;;;;;;17.02;6.18;;;;;;;;;;6072550;23;20028;-89
2022/11/27 10:36:18;;;;;;;16.25;7.80;;;;;;;;;;6048147;23;20014;-88
2022/11/27 10:38:44;;;;;;;13.10;6.05;;;;;;;;;;6072077;23;20018;-88
2022/11/27 10:41:17;;;;;;;13.98;7.65;;;;;;;;;;6072949;23;20050;-87
2022/11/27 10:43:43;;;;;;;9.93;5.20;;;;;;;;;;6096229;23;20030;-87
2022/11/27 10:46:21;;;;;;;16.55;6.65;;;;;;;;;;6072027;23;20452;-87
2022/11/27 10:48:47;;;;;;;12.35;6.55;;;;;;;;;;6070504;23;20146;-87
2022/11/27 10:51:15;;;;;;;12.88;7.10;;;;;;;;;;6195378;23;20023;-87
2022/11/27 10:53:41;;;;;;;10.13;6.88;;;;;;;;;;6195270;23;20023;-87
2022/11/27 10:56:17;;;;;;;17.63;7.75;;;;;;;;;;6195249;23;20024;-87
2022/11/27 10:58:43;;;;;;;14.43;6.13;;;;;;;;;;6195162;23;20475;-87
2022/11/27 11:01:10;;;;;;;18.83;7.50;;;;;;;;;;6195897;23;20023;-87
2022/11/27 11:03:37;;;;;;;11.32;6.47;;;;;;;;;;6195971;23;20058;-87
2022/11/27 11:06:05;;;;;;;10.27;6.72;;;;;;;;;;6197285;23;20016;-90
2022/11/27 11:08:33;;;;;;;9.85;5.43;;;;;;;;;;6222348;23;20071;-88
2022/11/27 11:11:00;;;;;;;11.50;6.60;;;;;;;;;;6211064;22;20441;-90
2022/11/27 11:13:44;;;;;;;16.90;6.95;;;;;;;;;;6253389;22;20031;-89
2022/11/27 11:16:10;;;;;;;12.75;6.70;;;;;;;;;;6252798;22;20405;-88
2022/11/27 11:18:45;;;;;;;13.18;7.30;;;;;;;;;;6228120;22;20433;-88
2022/11/27 11:21:17;;;;;;;10.73;6.40;;;;;;;;;;6251951;22;20027;-91
2022/11/27 11:23:45;;;;;;;17.42;7.93;;;;;;;;;;6251820;22;20012;-92
2022/11/27 11:26:23;;;;;;;10.45;7.53;;;;;;;;;;6227420;22;20023;-91
2022/11/27 11:28:51;;;;;;;13.23;6.65;;;;;;;;;;6279507;22;20026;-91
2022/11/27 11:31:19;;;;;;;14.93;7.45;;;;;;;;;;6252500;22;20015;-91
2022/11/27 11:34:02;;;;;;;10.95;6.68;;;;;;;;;;6279735;22;20074;-91
2022/11/27 11:36:28;;;;;;;14.77;7.30;;;;;;;;;;6252533;22;20023;-90
2022/11/27 11:38:54;;;;;;;16.33;7.25;;;;;;;;;;6252582;22;20067;-91
2022/11/27 11:41:22;;;;;;;11.57;6.35;;;;;;;;;;6253151;22;20051;-92
2022/11/27 11:44:01;;;;;;;16.33;6.35;;;;;;;;;;6226947;22;20019;-90
2022/11/27 11:46:31;;;;;;;15.30;6.40;;;;;;;;;;6280831;22;20019;-94
2022/11/27 11:49:16;;;;;;;12.57;6.53;;;;;;;;;;6253428;22;20023;-95
2022/11/27 11:51:45;;;;;;;11.25;6.85;;;;;;;;;;6281433;22;20012;-96
2022/11/27 11:54:17;;;;;;;12.15;6.07;;;;;;;;;;6252918;22;20024;-91
2022/11/27 11:56:51;;;;;;;11.35;7.32;;;;;;;;;;6280407;22;20012;-92
2022/11/27 11:59:26;;;;;;;10.80;6.07;;;;;;;;;;6227663;22;20102;-93
2022/11/27 12:22:37;;;;;;;13.52;6.93;;;;;;;;;;5900116;24;20077;-91
2022/11/27 12:25:49;;;;;;;10.82;6.68;;;;;;;;;;5927268;24;20029;-93
2022/11/27 12:28:53;;;;;;;11.38;6.43;;;;;;;;;;5844434;24;20022;-92
2022/11/27 12:59:15;;;;;;;;;;;;;;;;;;;;;
2022/11/27 13:05:28;;;;;;;14.23;7.47;;;;;;;;;;5874504;24;20021;-94
2022/11/27 13:07:57;;;;;;;13.07;5.75;;;;;;;;;;5859426;24;20025;-89
2022/11/27 13:10:39;;;;;;;8.68;5.80;;;;;;;;;;5883220;24;20017;-90
2022/11/27 13:13:14;;;;;;;13.40;6.25;;;;;;;;;;5929737;24;20119;-89
2022/11/27 13:15:45;;;;;;;12.75;5.93;;;;;;;;;;5907053;24;20025;-90
2022/11/27 13:18:32;;;;;;;13.80;6.45;;;;;;;;;;5906934;24;20023;-90
2022/11/27 13:21:03;;;;;;;10.32;5.97;;;;;;;;;;5906685;23;20149;-90
2022/11/27 13:23:32;;;;;;;10.93;5.05;;;;;;;;;;5906924;24;20077;-89
2022/11/27 13:25:59;;;;;;;11.27;5.47;;;;;;;;;;5907086;24;20052;-89
2022/11/27 13:28:28;;;;;;;14.15;7.00;;;;;;;;;;5946667;23;20055;-90
2022/11/27 13:30:57;;;;;;;10.43;6.22;;;;;;;;;;6060879;23;20018;-90
2022/11/27 13:33:30;;;;;;;11.48;5.68;;;;;;;;;;6104529;23;20109;-89
2022/11/27 13:35:57;;;;;;;11.30;5.55;;;;;;;;;;6226421;22;20037;-89
2022/11/27 13:38:24;;;;;;;10.05;5.53;;;;;;;;;;6249329;22;20022;-90
2022/11/27 13:40:52;;;;;;;11.15;5.72;;;;;;;;;;6224493;22;20038;-90
2022/11/27 13:43:27;;;;;;;7.40;5.13;;;;;;;;;;6224050;22;20047;-89
2022/11/27 13:45:59;;;;;;;10.50;5.22;;;;;;;;;;6224514;22;20020;-89
2022/11/27 13:48:37;;;;;;;8.27;5.10;;;;;;;;;;6224095;22;20094;-89
2022/11/27 13:51:05;;;;;;;8.27;5.43;;;;;;;;;;6224955;22;20016;-89
2022/11/27 13:53:49;;;;;;;10.07;5.45;;;;;;;;;;6224493;22;20015;-89
2022/11/27 13:56:15;;;;;;;;;;;;;;;;;;6250776;22;20012;-90
2022/11/27 13:58:42;;;;;;;10.95;5.40;;;;;;;;;;6249751;22;19961;-90
2022/11/27 14:01:21;;;;;;;9.82;5.78;;;;;;;;;;6224434;22;20090;-90
2022/11/27 14:03:48;;;;;;;8.63;5.55;;;;;;;;;;6224823;22;20397;-90
2022/11/27 14:06:17;;;;;;;13.07;6.40;;;;;;;;;;6224584;22;20019;-90
2022/11/27 14:08:54;;;;;;;9.35;5.57;;;;;;;;;;6227171;22;20063;-90
2022/11/27 14:11:42;;;;;;;9.43;5.97;;;6.80;99.90;;;;;;6252577;22;20011;-91
2022/11/27 14:14:22;;;;;;;11.90;5.95;;;;;;;;;;6251459;22;20092;-90
2022/11/27 14:17:01;;;;;;;10.20;5.80;;;;;;;;;;6226963;22;20045;-90
2022/11/27 14:19:33;;;;;;;7.50;4.90;;;;;;;;;;6226187;22;20023;-90
2022/11/27 14:21:59;;;;;;;13.02;7.03;;;;;;;;;;6227403;22;20085;-90
2022/11/27 14:24:33;;;;;;;10.10;5.65;;;;;;;;;;6227636;22;20329;-90
2022/11/27 14:27:00;;;;;;;9.25;5.10;;;;;;;;;;6251736;22;20448;-90
2022/11/27 14:29:28;;;;;;;10.57;5.43;;;;;;;;;;6278166;22;20437;-89
2022/11/27 14:31:56;;;;;;;13.50;5.90;;;;;;;;;;6226517;22;20015;-90
2022/11/27 14:34:29;;;;;;;12.25;5.78;;;;;;;;;;6225721;22;20142;-90
2022/11/27 14:36:55;;;;;;;7.75;4.63;;;;;;;;;;6227022;22;20015;-90
2022/11/27 14:39:29;;;;;;;8.88;5.78;;;;;;;;;;6226775;22;20077;-89
2022/11/27 14:42:01;;;;;;;10.50;5.75;;;;;;;;;;6250989;22;20051;-89
2022/11/27 14:44:28;;;;;;;12.43;6.35;;;;;;;;;;6225629;22;20019;-89
2022/11/27 14:46:55;;;;;;;12.70;6.07;;;;;;;;;;6225452;22;20375;-90
2022/11/27 14:49:23;;;;;;;7.75;5.57;;;;;;;;;;6227144;22;20089;-89
2022/11/27 14:51:50;;;;;;;13.20;6.20;;;;;;;;;;6251184;22;20441;-89
2022/11/27 14:54:16;;;;;;;12.13;6.28;;;;;;;;;;6225866;22;20015;-89
2022/11/27 14:56:43;;;;;;;11.93;5.63;;;;;;;;;;6226066;22;20011;-90
2022/11/27 14:59:17;;;;;;;8.80;5.47;;;;;;;;;;6225476;22;20016;-90
2022/11/27 15:01:43;;;;;;;7.85;5.45;;;;;;;;;;6225406;22;20019;-88
2022/11/27 15:04:25;;;;;;;11.73;4.93;;;;;;;;;;6250888;22;20020;-89
2022/11/27 15:06:52;;;;;;;12.60;5.85;;;;;;;;;;6225320;22;20062;-90
2022/11/27 15:09:22;;;;;;;9.73;5.53;;;;;;;;;;6251983;22;20026;-90
2022/11/27 15:11:53;;;;;;;10.30;6.03;;;;;;;;;;6225416;22;20383;-90
2022/11/27 15:14:19;;;;;;;12.50;6.53;;;;;;;;;;6225471;22;20015;-89
2022/11/27 15:16:48;;;;;;;9.65;6.00;;;;;;;;;;6226033;22;20034;-90
2022/11/27 15:19:34;;;;;;;12.23;6.78;;;;;;;;;;6250603;22;20024;-89
2022/11/27 15:22:00;;;;;;;10.68;6.60;;;;;;;;;;6225900;22;20453;-90
2022/11/27 15:24:34;;;;;;;12.73;6.30;;;;;;;;;;6250578;22;20015;-89
2022/11/27 15:27:13;;;;;;;14.35;6.57;;;;;;;;;;6226233;22;20024;-90
2022/11/27 15:29:40;;;;;;;10.85;6.47;;;;;;;;;;6225721;22;20020;-90
2022/11/27 15:32:16;;;;;;;14.60;7.50;;;;;;;;;;6225198;22;20016;-89
2022/11/27 15:34:42;;;;;;;15.65;7.88;;;;;;;;;;6250223;22;20105;-89
2022/11/27 15:37:26;;;;;;;14.52;8.13;;;;;;;;;;6225020;22;20016;-89